Merrill, Oregon
Current Conditions -  °F | °C
As of 4:53 AM on Friday 24 Oct 2014 (Local Time) from KLMT Reporting Station
Light Rain Light Rain  
Wind Chill: 39°   Ceiling: 1300
Heat Index: 43°   Visibility: 10mi
Dew Point: 40°   Wind: 6mph
Humidity: 89%   Direction: 70°ENE
Pressure: 30.03"   Gusts: NA
Location:  42.03°N, 121.6°W
Report Text: KLMT 241153Z AUTO 07005KT 10SM -RA BKN013 BKN030 OVC036 06/04 A3003 RMK AO2 SLP159 P0003 60021 70078 T00610044 10067 20061 58010
Loading
Personal Weather Stations






























Interactive Weather Map
Tropical Storm Tracking
New forecast layout! Learn more

10-Day Weather Forecast

Advertisements
Track Severe Weather on mobile